Femme Osage, Missouri
Current Conditions -  °F | °C
As of 1:55 AM on Saturday 20 Dec 2014 (Local Time) from KFYG Reporting Station
Haze Haze  
Wind Chill: 36°   Ceiling: 2500
Heat Index: 36°   Visibility: 6mi
Dew Point: 32°   Wind: 3mph
Humidity: 87%   Direction: 120°ESE
Pressure: 30.25"   Gusts: NA
Location:  38.6039°N, 90.8829°W
Report Text: KFYG 200755Z AUTO 12003KT 6SM BR BKN025 OVC055 02/00 A3025 RMK AO2
Loading
Personal Weather Stations






























Interactive Weather Map New forecast layout! Learn more

10-Day Weather Forecast

Advertisements
Track Severe Weather on mobile